Time;durP1;ratioP1;P1;durP2;ratioP2;P2;SDS_P1;SDS_P2;PMS_P1;PMS_P2;Temp;Humidity;BMP_temperature;BMP_pressure;BME280_temperature;BME280_humidity;BME280_pressure;Samples;Min_cycle;Max_cycle;Signal;HPM_P1;HPM_P2
2023/05/24 09:44:12;;;;;;;;;;;;;;;;;;5017237;28;19968;-89
2023/05/24 09:46:37;;;;;;;;;;;;;;;;;;5018779;28;20334;-95
2023/05/24 09:49:05;;;;;;;;;;;;;;;;;;5001713;28;19956;-96
2023/05/24 09:51:31;;;;;;;;;;;;;;;;;;5019718;28;19940;-94
2023/05/24 09:54:01;;;;;;;;;;;;;;;;;;5009829;28;19981;-96
2023/05/24 09:56:26;;;;;;;;;;;;;;;;;;5007703;28;19913;-96
2023/05/24 09:58:53;;;;;;;;;;;;;;;;;;5008107;28;20370;-95
2023/05/24 10:01:21;;;;;;;;;;;;;;;;;;5002480;28;19913;-94
2023/05/24 10:03:53;;;;;;;;;;;;;;;;;;5030695;28;19941;-96
2023/05/24 10:06:19;;;;;;;;;;;;;;;;;;5021150;28;19968;-93
2023/05/24 10:08:47;;;;;;;;;;;;;;;;;;5018239;28;20386;-96
2023/05/24 10:11:12;;;;;;;;;;;;;;;;;;5001504;28;20004;-96
2023/05/24 10:13:38;;;;;;;;;;;;;;;;;;5001093;28;19949;-93
2023/05/24 10:16:04;;;;;;;;;;;;;;;;;;5019814;28;19913;-96
2023/05/24 10:18:53;;;;;;;;;;;;;;;;;;5006089;28;19962;-95
2023/05/24 10:22:06;;;;;;;;;;;;;;;;;;5045201;22;19905;-91
2023/05/24 10:25:15;;;;;;;;;;;;;;;;;;5030972;22;19921;-96
2023/05/24 10:27:43;;;;;;;;;;;;;;;;;;5022681;23;19941;-93
2023/05/24 10:30:13;;;;;;;;;;;;;;;;;;5007047;23;19921;-96
2023/05/24 10:32:39;;;;;;;;;;;;;;;;;;5000119;28;19913;-94
2023/05/24 10:35:05;;;;;;;;;;;;;;;;;;4998633;28;20336;-96
2023/05/24 10:37:31;;;;;;;;;;;;;;;;;;5001058;28;19914;-96
2023/05/24 10:39:57;;;;;;;;;;;;;;;;;;5004722;28;19905;-96
2023/05/24 10:42:22;;;;;;;;;;;;;;;;;;5006812;28;19898;-93
2023/05/24 10:44:48;;;;;;;;;;;;;;;;;;5014030;23;19968;-91
2023/05/24 10:47:15;;;;;;;;;;;;;;;;;;4995662;28;20361;-88
2023/05/24 10:49:51;;;;;;;;;;;;;;;;;;4995417;28;19925;-90
2023/05/24 10:52:17;;;;;;;;;;;;;;;;;;4996850;28;20021;-89
2023/05/24 10:55:18;;;;;;;;;;;;;;;;;;4996646;28;19937;-89
2023/05/24 10:57:43;;;;;;;;;;;;;;;;;;4937304;29;19942;-89
2023/05/24 11:00:27;;;;;;;;;;;;;;;;;;4984050;28;19936;-89
2023/05/24 11:03:00;;;;;;;;;;;;;;;;;;4996704;28;19920;-89
2023/05/24 11:05:50;;;;;;;;;;;;;;;;;;4994529;28;19930;-89
2023/05/24 11:08:32;;;;;;;;;;;;;;;;;;4994876;28;20372;-89
2023/05/24 11:11:03;;;;;;;;;;;;;;;;;;4996369;28;19914;-89
2023/05/24 11:13:29;;;;;;;;;;;;;;;;;;4994836;28;19988;-89
2023/05/24 11:15:55;;;;;;;;;;;;;;;;;;4994501;28;20427;-88
2023/05/24 11:18:23;;;;;;;;;;;;;;;;;;4994756;28;19948;-88
2023/05/24 11:20:50;;;;;;;;;;;;;;;;;;4995776;28;20016;-87
2023/05/24 11:23:15;;;;;;;;;;;;;;;;;;4996210;28;19921;-88
2023/05/24 11:25:41;;;;;;;;;;;;;;;;;;4996004;28;20276;-88
2023/05/24 11:28:08;;;;;;;;;;;;;;;;;;5011124;28;19918;-88
2023/05/24 11:30:38;;;;;;;;;;;;;;;;;;4995669;28;20020;-88
2023/05/24 11:33:03;;;;;;;;;;;;;;;;;;4995520;28;19909;-88
2023/05/24 11:35:28;;;;;;;;;;;;;;;;;;4995960;28;20257;-89
2023/05/24 11:37:56;;;;;;;;;;;;;;;;;;4995843;28;20360;-88
2023/05/24 11:40:22;;;;;;;;;;;;;;;;;;4995546;28;19941;-88
2023/05/24 11:42:49;;;;;;;;;;;;;;;;;;4995637;28;20007;-88
2023/05/24 11:45:17;;;;;;;;;;;;;;;;;;4993912;28;19918;-88
2023/05/24 11:47:42;;;;;;;;;;;;;;;;;;4995406;28;19968;-88
2023/05/24 11:50:08;;;;;;;;;;;;;;;;;;4994106;28;19917;-88
2023/05/24 11:52:37;;;;;;;;;;;;;;;;;;4995343;28;19913;-88
2023/05/24 11:55:03;;;;;;;;;;;;;;;;;;4995667;28;20360;-88
2023/05/24 11:57:32;;;;;;;;;;;;;;;;;;4994574;28;19913;-88
2023/05/24 11:59:57;;;;;;;;;;;;;;;;;;4995468;28;20409;-87
2023/05/24 12:02:23;;;;;;;;;;;;;;;;;;4995508;28;19952;-88
2023/05/24 12:04:48;;;;;;;;;;;;;;;;;;4995460;28;19917;-88
2023/05/24 12:07:15;;;;;;;;;;;;;;;;;;4995485;28;19921;-88
2023/05/24 12:09:40;;;;;;;;;;;;;;;;;;4995236;28;20372;-87
2023/05/24 12:12:06;;;;;;;;;;;;;;;;;;4995084;28;19996;-87
2023/05/24 12:14:32;;;;;;;;;;;;;;;;;;4993961;28;20369;-88
2023/05/24 12:16:58;;;;;;;;;;;;;;;;;;4994608;28;20357;-89
2023/05/24 12:19:28;;;;;;;;;;;;;;;;;;4994902;28;19913;-88
2023/05/24 12:21:57;;;;;;;8.90;6.10;;;;;;;;;;4994888;28;19914;-88
2023/05/24 12:24:23;;;;;;;;;;;;;;;;;;4994956;28;20041;-88
2023/05/24 12:26:49;;;;;;;;;;;;;;;;;;4993535;28;19948;-88
2023/05/24 12:29:14;;;;;;;;;;;;;;;;;;4994872;28;19949;-88
2023/05/24 12:31:40;;;;;;;;;;;;;;;;;;4995025;28;20275;-88
2023/05/24 12:34:07;;;;;;;;;;;;;;;;;;4994715;28;19913;-88
2023/05/24 12:36:34;;;;;;;;;;;;;;;;;;4994867;28;19941;-88
2023/05/24 12:39:21;;;;;;;;;;;;;;;;;;4994735;28;19914;-88
2023/05/24 12:41:51;;;;;;;;;;;;;;;;;;4994524;28;20021;-88
2023/05/24 12:44:16;;;;;;;;;;;;;;;;;;5003385;28;19926;-88
2023/05/24 12:46:42;;;;;;;;;;;;;;;;;;5014545;28;19917;-88
2023/05/24 12:49:08;;;;;;;;;;;;;;;;;;5012935;28;19917;-89
2023/05/24 12:51:35;;;;;;;;;;;;;;;;;;5014251;28;19917;-88
2023/05/24 12:54:03;;;;;;;;;;;;;;;;;;5014366;28;19924;-88
2023/05/24 12:56:29;;;;;;;;;;;;;;;;;;5014387;28;19914;-88
2023/05/24 12:58:54;;;;;;;;;;;;;;;;;;5014016;28;20391;-88
2023/05/24 13:01:19;;;;;;;;;;;;;;;;;;5014028;28;19946;-88
2023/05/24 13:03:45;;;;;;;;;;;;;;;;;;5014277;28;19913;-88
2023/05/24 13:06:10;;;;;;;;;;;;;;;;;;5014021;28;19917;-88
2023/05/24 13:08:35;;;;;;;;;;;;;;;;;;5013844;28;20009;-88
2023/05/24 13:11:01;;;;;;;;;;;;;;;;;;5013888;28;19936;-88
2023/05/24 13:13:27;;;;;;;;;;;;;;;;;;5012755;28;20384;-88
2023/05/24 13:15:53;;;;;;;;;;;;;;;;;;5014033;28;20375;-88
2023/05/24 13:18:18;;;;;;;;;;;;;;;;;;5014126;28;19914;-88
2023/05/24 13:20:43;;;;;;;;;;;;;;;;;;5014242;28;20379;-88
2023/05/24 13:23:09;;;;;;;;;;;;;;;;;;5014446;28;19914;-89
2023/05/24 13:25:34;;;;;;;;;;;;;;;;;;5014696;28;19909;-88
2023/05/24 13:27:59;;;;;;;;;;;;;;;;;;5014101;28;19917;-88
2023/05/24 13:30:27;;;;;;;;;;;;;;;;;;5016227;28;20019;-88
2023/05/24 13:32:53;;;;;;;;;;;;;;;;;;5017720;28;19916;-88
2023/05/24 13:35:18;;;;;;;;;;;;;;;;;;5016381;28;19913;-88
2023/05/24 13:37:44;;;;;;;;;;;;;;;;;;5017374;28;20374;-88
2023/05/24 13:40:09;;;;;;;;;;;;;;;;;;5017171;28;19918;-88
2023/05/24 13:42:35;;;;;;;;;;;;;;;;;;5017494;28;20372;-88
2023/05/24 13:45:02;;;;;;;;;;;;;;;;;;5017272;28;19964;-88
2023/05/24 13:47:27;;;;;;;;;;;;;;;;;;5017285;28;19948;-88
2023/05/24 13:49:52;;;;;;;;;;;;;;;;;;5017171;28;20340;-88
2023/05/24 13:52:18;;;;;;;;;;;;;;;;;;5016241;28;19920;-88
2023/05/24 13:54:43;;;;;;;;;;;;;;;;;;5017260;28;19920;-88
2023/05/24 13:57:09;;;;;;;;;;;;;;;;;;5017194;28;20261;-88
2023/05/24 13:59:34;;;;;;;;;;;;;;;;;;5016977;28;20292;-88
2023/05/24 14:02:00;;;;;;;;;;;;;;;;;;5016009;28;20358;-88
2023/05/24 14:04:25;;;;;;;;;;;;;;;;;;5017004;28;19920;-88
2023/05/24 14:06:51;;;;;;;;;;;;;;;;;;5017319;28;20260;-88
2023/05/24 14:09:16;;;;;;;;;;;;;;;;;;5017332;28;19913;-88
2023/05/24 14:11:44;;;;;;;;;;;;;;;;;;5017134;28;20379;-88
2023/05/24 14:14:09;;;;;;;;;;;;;;;;;;5017321;28;19921;-88
2023/05/24 14:16:35;;;;;;;;;;;;;;;;;;5016897;28;19913;-88
2023/05/24 14:19:00;;;;;;;;;;;;;;;;;;5015622;28;20008;-87
2023/05/24 14:21:26;;;;;;;;;;;;;;;;;;5016950;28;20280;-87
2023/05/24 14:23:51;;;;;;;;;;;;;;;;;;5016739;28;20021;-88
2023/05/24 14:26:17;;;;;;;;;;;;;;;;;;4999222;28;19913;-88
2023/05/24 14:28:42;;;;;;;;;;;;;;;;;;5017240;28;19929;-88
2023/05/24 14:31:08;;;;;;;;;;;;;;;;;;5017109;28;19971;-88
2023/05/24 14:33:33;;;;;;;;;;;;;;;;;;5017724;28;20112;-88
2023/05/24 14:35:58;;;;;;;;;;;;;;;;;;5016713;28;19917;-88
2023/05/24 14:38:24;;;;;;;;;;;;;;;;;;5017678;28;19913;-88
2023/05/24 14:40:49;;;;;;;;;;;;;;;;;;5016101;28;19946;-88
2023/05/24 14:43:15;;;;;;;;;;;;;;;;;;5017604;28;20361;-88
2023/05/24 14:45:40;;;;;;;;;;;;;;;;;;5017778;28;19928;-89
2023/05/24 14:48:09;;;;;;;;;;;;;;;;;;5020689;28;19917;-86
2023/05/24 14:50:34;;;;;;;;;;;;;;;;;;5019671;28;19952;-87
2023/05/24 14:53:00;;;;;;;;;;;;;;;;;;5019571;28;19925;-86
2023/05/24 14:55:25;;;;;;;;;;;;;;;;;;5018374;28;19936;-88
2023/05/24 14:57:51;;;;;;;;;;;;;;;;;;5019693;28;19913;-87
2023/05/24 15:00:16;;;;;;;;;;;;;;;;;;5015944;28;19913;-86
2023/05/24 15:02:42;;;;;;;;;;;;;;;;;;5016177;28;20368;-87
2023/05/24 15:05:07;;;;;;;;;;;;;;;;;;5016101;28;20365;-87
2023/05/24 15:07:32;;;;;;;;;;;;;;;;;;5016563;28;19917;-87
2023/05/24 15:09:58;;;;;;;;;;;;;;;;;;5016572;28;19913;-87
2023/05/24 15:12:23;;;;;;;;;;;;;;;;;;5016080;28;19920;-87
2023/05/24 15:14:48;;;;;;;;;;;;;;;;;;5016060;28;19913;-86
2023/05/24 15:17:14;;;;;;;;;;;;;;;;;;5015856;28;20287;-86
2023/05/24 15:19:39;;;;;;;;;;;;;;;;;;5014293;28;20399;-86
2023/05/24 15:22:06;;;;;;;;;;;;;;;;;;5014228;28;19917;-86
2023/05/24 15:24:31;;;;;;;;;;;;;;;;;;5014583;28;19922;-86
2023/05/24 15:26:56;;;;;;;;;;;;;;;;;;5014585;28;19936;-86
2023/05/24 15:29:22;;;;;;;;;;;;;;;;;;5015482;28;19920;-86
2023/05/24 15:31:47;;;;;;;;;;;;;;;;;;5015774;28;19913;-86
2023/05/24 15:34:13;;;;;;;;;;;;;;;;;;5015791;28;19972;-86
2023/05/24 15:36:39;;;;;;;;;;;;;;;;;;4997776;28;19913;-86
2023/05/24 15:39:05;;;;;;;;;;;;;;;;;;5015028;28;20388;-86
2023/05/24 15:41:30;;;;;;;;;;;;;;;;;;5015438;28;19917;-86
2023/05/24 15:43:57;;;;;;;;;;;;;;;;;;5014983;28;19917;-87
2023/05/24 15:46:22;;;;;;;;;;;;;;;;;;5015264;28;20375;-87
2023/05/24 15:48:47;;;;;;;;;;;;;;;;;;5014786;28;19960;-86
2023/05/24 15:51:13;;;;;;;;;;;;;;;;;;5014279;28;19953;-87
2023/05/24 15:53:38;;;;;;;;;;;;;;;;;;5014890;28;19960;-87
2023/05/24 15:56:04;;;;;;;;;;;;;;;;;;5013866;28;20319;-87
2023/05/24 15:58:29;;;;;;;;;;;;;;;;;;5014871;28;19940;-87
2023/05/24 16:00:55;;;;;;;;;;;;;;;;;;5015041;28;19913;-87
2023/05/24 16:03:20;;;;;;;;;;;;;;;;;;5015381;28;19928;-87
2023/05/24 16:05:49;;;;;;;;;;;;;;;;;;5014917;28;20012;-87
2023/05/24 16:08:15;;;;;;;;;;;;;;;;;;5014550;28;19914;-87
2023/05/24 16:10:42;;;;;;;;;;;;;;;;;;5014655;28;20012;-87
2023/05/24 16:13:08;;;;;;;;;;;;;;;;;;5015077;28;19917;-86
2023/05/24 16:15:35;;;;;;;;;;;;;;;;;;5015034;28;20012;-87
2023/05/24 16:18:01;;;;;;;;;;;;;;;;;;5014960;28;19921;-87
2023/05/24 16:20:26;;;;;;;;;;;;;;;;;;5013319;28;19967;-87
2023/05/24 16:22:51;;;;;;;;;;;;;;;;;;5014595;28;19975;-87
2023/05/24 16:25:17;;;;;;;;;;;;;;;;;;5014488;28;19913;-87
2023/05/24 16:27:42;;;;;;;;;;;;;;;;;;5014375;28;19917;-88
2023/05/24 16:30:08;;;;;;;;;;;;;;;;;;5014509;28;19963;-87
2023/05/24 16:32:33;;;;;;;;;;;;;;;;;;5014265;28;19913;-87
2023/05/24 16:34:58;;;;;;;;;;;;;;;;;;5014497;28;19913;-87
2023/05/24 16:37:24;;;;;;;;;;;;;;;;;;5014122;28;19920;-87
2023/05/24 16:39:49;;;;;;;;;;;;;;;;;;5014227;28;20277;-87
2023/05/24 16:42:14;;;;;;;;;;;;;;;;;;5014729;28;20273;-87
2023/05/24 16:44:40;;;;;;;;;;;;;;;;;;5014105;28;20012;-87
2023/05/24 16:47:05;;;;;;;;;;;;;;;;;;5013899;28;20014;-87
2023/05/24 16:49:31;;;;;;;;;;;;;;;;;;5014274;28;19917;-87
2023/05/24 16:51:56;;;;;;;;;;;;;;;;;;5014481;28;19921;-87
2023/05/24 16:54:21;;;;;;;;;;;;;;;;;;5015016;28;19920;-87
2023/05/24 16:56:47;;;;;;;;;;;;;;;;;;5012861;28;20004;-87
2023/05/24 16:59:12;;;;;;;;;;;;;;;;;;5014793;28;19914;-87
2023/05/24 17:01:38;;;;;;;;;;;;;;;;;;5014183;28;19913;-87
2023/05/24 17:04:03;;;;;;;;;;;;;;;;;;5016489;28;20360;-87
2023/05/24 17:06:28;;;;;;;;;;;;;;;;;;5018037;28;19967;-87
2023/05/24 17:08:54;;;;;;;;;;;;;;;;;;5016944;28;19924;-87
2023/05/24 17:11:19;;;;;;;;;;;;;;;;;;5000810;28;20276;-87
2023/05/24 17:13:45;;;;;;;;;;;;;;;;;;5017127;28;19913;-87
2023/05/24 17:16:12;;;;;;;;;;;;;;;;;;5017127;28;19917;-88
2023/05/24 17:18:38;;;;;;;;;;;;;;;;;;5017818;28;19991;-89
2023/05/24 17:21:04;;;;;;;;;;;;;;;;;;5018032;28;20360;-87
2023/05/24 17:23:30;;;;;;;;;;;;;;;;;;5017690;28;19932;-87
2023/05/24 17:25:56;;;;;;;;;;;;;;;;;;5024852;28;19960;-87
2023/05/24 17:28:26;;;;;;;;;;;;;;;;;;5034693;28;19917;-86
2023/05/24 17:30:51;;;;;;;;;;;;;;;;;;5031109;28;19917;-86
2023/05/24 17:33:17;;;;;;;;;;;;;;;;;;5037061;28;19935;-86
2023/05/24 17:35:42;;;;;;;;;;;;;;;;;;5037119;28;20370;-87
2023/05/24 17:38:07;;;;;;;;;;;;;;;;;;5037166;28;20331;-87
2023/05/24 17:40:33;;;;;;;;;;;;;;;;;;5036869;28;19913;-87
2023/05/24 17:42:58;;;;;;;;;;;;;;;;;;5001693;28;19913;-87
2023/05/24 17:45:24;;;;;;;;;;;;;;;;;;5017014;28;19924;-87
2023/05/24 17:47:49;;;;;;;;;;;;;;;;;;4999530;28;20015;-87
2023/05/24 17:50:14;;;;;;;;;;;;;;;;;;5016874;28;19921;-88
2023/05/24 17:52:40;;;;;;;;;;;;;;;;;;4999624;28;20011;-88
2023/05/24 17:55:06;;;;;;;;;;;;;;;;;;5017255;28;20415;-87
2023/05/24 17:57:31;;;;;;;;;;;;;;;;;;5017191;28;19925;-88
2023/05/24 17:59:56;;;;;;;;;;;;;;;;;;5033407;28;20260;-88
2023/05/24 18:02:22;;;;;;;;;;;;;;;;;;5037026;28;19917;-88
2023/05/24 18:04:47;;;;;;;;;;;;;;;;;;5037259;28;19964;-88
2023/05/24 18:07:13;;;;;;;;;;;;;;;;;;5036981;28;19920;-87
2023/05/24 18:09:39;;;;;;;;;;;;;;;;;;5036537;28;19936;-88
2023/05/24 18:12:04;;;;;;;;;;;;;;;;;;5021605;28;20352;-87
2023/05/24 18:14:30;;;;;;;;;;;;;;;;;;5016508;28;19909;-88
2023/05/24 18:16:56;;;;;;;;;;;;;;;;;;5016884;28;20012;-88
2023/05/24 18:19:21;;;;;;;;;;;;;;;;;;5016975;28;19920;-88
2023/05/24 18:21:47;;;;;;;;;;;;;;;;;;5017091;28;19909;-88
2023/05/24 18:24:13;;;;;;;;;;;;;;;;;;5017898;28;19913;-88
2023/05/24 18:26:38;;;;;;;;;;;;;;;;;;5016924;28;19956;-88
2023/05/24 18:29:03;;;;;;;;;;;;;;;;;;5016887;28;19913;-89
2023/05/24 18:31:29;;;;;;;;;;;;;;;;;;5017175;28;19918;-88
2023/05/24 18:33:54;;;;;;;;;;;;;;;;;;5016579;28;19913;-87
2023/05/24 18:36:20;;;;;;;;;;;;;;;;;;4999158;28;19919;-85
2023/05/24 18:38:46;;;;;;;;;;;;;;;;;;4998983;28;20276;-85
2023/05/24 18:41:11;;;;;;;;;;;;;;;;;;5016571;28;19936;-85
2023/05/24 18:43:37;;;;;;;;;;;;;;;;;;5016224;28;19917;-85
2023/05/24 18:46:02;;;;;;;;;;;;;;;;;;5016618;28;19936;-85
2023/05/24 18:48:27;;;;;;;;;;;;;;;;;;5016611;28;20284;-85
2023/05/24 18:50:53;;;;;;;;;;;;;;;;;;5016576;28;20000;-85
2023/05/24 18:53:19;;;;;;;;;;;;;;;;;;4998555;28;19920;-86
2023/05/24 18:55:46;;;;;;;;;;;;;;;;;;5016336;28;20375;-91
2023/05/24 18:58:11;;;;;;;;;;;;;;;;;;4998346;28;20446;-87
2023/05/24 19:00:36;;;;;;;;;;;;;;;;;;5015821;28;19917;-88
2023/05/24 19:03:02;;;;;;;;;;;;;;;;;;5015804;28;19944;-88
2023/05/24 19:05:27;;;;;;;;;;;;;;;;;;5015982;28;20360;-86
2023/05/24 19:07:52;;;;;;;;;;;;;;;;;;5016063;28;19937;-86
2023/05/24 19:10:18;;;;;;;;;;;;;;;;;;5015958;28;20264;-86
2023/05/24 19:12:43;;;;;;;;;;;;;;;;;;5015767;28;19913;-85
2023/05/24 19:15:09;;;;;;;;;;;;;;;;;;5015643;28;19927;-85
2023/05/24 19:17:34;;;;;;;;;;;;;;;;;;5015892;28;19913;-85
2023/05/24 19:20:00;;;;;;;;;;;;;;;;;;5015485;28;19948;-86
2023/05/24 19:22:26;;;;;;;;;;;;;;;;;;4998241;28;19917;-84
2023/05/24 19:24:51;;;;;;;;;;;;;;;;;;5015957;28;20360;-86
2023/05/24 19:27:17;;;;;;;;;;;;;;;;;;5015029;28;19913;-86
2023/05/24 19:29:42;;;;;;;;;;;;;;;;;;5015316;28;19921;-86
2023/05/24 19:32:07;;;;;;;;;;;;;;;;;;5015567;28;19913;-87
2023/05/24 19:34:35;;;;;;;;;;;;;;;;;;5015573;28;19913;-91
2023/05/24 19:37:01;;;;;;;;;;;;;;;;;;5018753;28;20421;-85
2023/05/24 19:39:26;;;;;;;;;;;;;;;;;;5032697;28;19925;-87
2023/05/24 19:41:51;;;;;;;;;;;;;;;;;;5011007;28;20386;-87
2023/05/24 19:44:17;;;;;;;;;;;;;;;;;;5017203;28;19980;-87
2023/05/24 19:46:42;;;;;;;;;;;;;;;;;;5034913;28;19917;-87
2023/05/24 19:49:08;;;;;;;;;;;;;;;;;;5034612;28;19974;-87
2023/05/24 19:51:33;;;;;;;;;;;;;;;;;;5034737;28;19917;-87
2023/05/24 19:53:59;;;;;;;;;;;;;;;;;;5034792;28;20031;-88
2023/05/24 19:56:25;;;;;;;;;;;;;;;;;;5016971;28;19915;-87
2023/05/24 19:58:51;;;;;;;;;;;;;;;;;;5034624;28;19919;-87
2023/05/24 20:01:16;;;;;;;;;;;;;;;;;;5034802;28;19913;-87
2023/05/24 20:03:46;;;;;;;;;;;;;;;;;;5034401;28;20015;-87
2023/05/24 20:06:12;;;;;;;;;;;;;;;;;;5034480;28;20368;-87
2023/05/24 20:08:37;;;;;;;;;;;;;;;;;;5034363;28;19913;-87
2023/05/24 20:11:02;;;;;;;;;;;;;;;;;;5034408;28;19928;-87
2023/05/24 20:13:28;;;;;;;;;;;;;;;;;;5034366;28;19995;-87
2023/05/24 20:15:53;;;;;;;;;;;;;;;;;;5016484;28;19919;-87
2023/05/24 20:18:18;;;;;;;;;;;;;;;;;;5034765;28;20004;-87
2023/05/24 20:20:44;;;;;;;;;;;;;;;;;;5016679;28;19909;-87
2023/05/24 20:23:09;;;;;;;;;;;;;;;;;;5034100;28;19939;-87
2023/05/24 20:25:34;;;;;;;;;;;;;;;;;;5029103;28;19909;-87
2023/05/24 20:28:00;;;;;;;;;;;;;;;;;;4996788;28;20109;-87
2023/05/24 20:30:25;;;;;;;;;;;;;;;;;;5014760;28;20052;-87
2023/05/24 20:32:51;;;;;;;;;;;;;;;;;;5014569;28;20276;-87
2023/05/24 20:35:16;;;;;;;;;;;;;;;;;;5014866;28;20006;-87
2023/05/24 20:37:42;;;;;;;;;;;;;;;;;;5014322;28;19909;-87
2023/05/24 20:40:08;;;;;;;;;;;;;;;;;;5013963;28;19918;-87
2023/05/24 20:42:34;;;;;;;;;;;;;;;;;;5013894;28;19913;-87
2023/05/24 20:44:59;;;;;;;;;;;;;;;;;;5004530;28;19918;-87
2023/05/24 20:47:25;;;;;;;;;;;;;;;;;;5013873;28;20349;-87
2023/05/24 20:49:50;;;;;;;;;;;;;;;;;;5013967;28;19961;-87
2023/05/24 20:52:15;;;;;;;;;;;;;;;;;;5014652;28;19928;-87
2023/05/24 20:54:41;;;;;;;;;;;;;;;;;;5014733;28;19964;-86
2023/05/24 20:57:06;;;;;;;;;;;;;;;;;;5013591;28;20249;-87
2023/05/24 20:59:32;;;;;;;;;;;;;;;;;;5014071;28;19917;-87
2023/05/24 21:01:57;;;;;;;;;;;;;;;;;;5014476;28;19945;-87
2023/05/24 21:04:22;;;;;;;;;;;;;;;;;;5014258;28;19921;-87
2023/05/24 21:06:48;;;;;;;;;;;;;;;;;;5014600;28;19913;-86
2023/05/24 21:09:13;;;;;;;;;;;;;;;;;;5014035;28;19913;-86
2023/05/24 21:11:38;;;;;;;;;;;;;;;;;;5016659;28;19925;-87
2023/05/24 21:14:04;;;;;;;;;;;;;;;;;;5033957;28;19913;-86
2023/05/24 21:16:29;;;;;;;;;;;;;;;;;;5033982;28;20004;-87
2023/05/24 21:18:54;;;;;;;;;;;;;;;;;;5033762;28;20008;-87
2023/05/24 21:21:21;;;;;;;;;;;;;;;;;;5033850;28;20364;-86
2023/05/24 21:23:46;;;;;;;;;;;;;;;;;;5033863;28;19935;-86
2023/05/24 21:26:12;;;;;;;;;;;;;;;;;;5033747;28;20359;-86
2023/05/24 21:28:37;;;;;;;;;;;;;;;;;;5034014;28;19920;-86
2023/05/24 21:31:03;;;;;;;;;;;;;;;;;;5016299;28;19913;-86
2023/05/24 21:33:28;;;;;;;;;;;;;;;;;;5016194;28;19920;-86
2023/05/24 21:35:54;;;;;;;;;;;;;;;;;;5033844;28;19913;-86
2023/05/24 21:38:20;;;;;;;;;;;;;;;;;;5033900;28;19913;-86
2023/05/24 21:40:45;;;;;;;;;;;;;;;;;;5033927;28;20368;-86
2023/05/24 21:43:11;;;;;;;;;;;;;;;;;;5033977;28;19917;-86
2023/05/24 21:45:37;;;;;;;;;;;;;;;;;;5033578;28;19952;-86
2023/05/24 21:48:02;;;;;;;;;;;;;;;;;;5033946;28;19963;-86
2023/05/24 21:50:27;;;;;;;;;;;;;;;;;;5018835;28;20343;-86
2023/05/24 21:52:53;;;;;;;;;;;;;;;;;;5037321;28;19913;-87
2023/05/24 21:55:18;;;;;;;;;;;;;;;;;;5037656;28;20414;-86
2023/05/24 21:57:43;;;;;;;;;;;;;;;;;;5037533;28;20446;-86
2023/05/24 22:00:10;;;;;;;;;;;;;;;;;;5036975;28;20348;-87
2023/05/24 22:02:36;;;;;;;;;;;;;;;;;;5019259;28;20352;-86
2023/05/24 22:05:03;;;;;;;;;;;;;;;;;;5037369;28;19949;-86
2023/05/24 22:07:29;;;;;;;;;;;;;;;;;;5019617;28;20307;-86
2023/05/24 22:09:55;;;;;;;;;;;;;;;;;;5019590;28;20015;-87
2023/05/24 22:12:20;;;;;;;;;;;;;;;;;;5019231;28;19999;-87
2023/05/24 22:14:45;;;;;;;;;;;;;;;;;;5037626;28;19913;-88
2023/05/24 22:17:12;;;;;;;;;;;;;;;;;;5019833;28;19917;-88
2023/05/24 22:19:40;;;;;;;;;;;;;;;;;;5019532;28;19913;-87
2023/05/24 22:22:05;;;;;;;;;;;;;;;;;;5037423;28;19913;-87
2023/05/24 22:24:31;;;;;;;;;;;;;;;;;;5019698;28;19924;-87
2023/05/24 22:26:56;;;;;;;;;;;;;;;;;;5037440;28;19913;-87
2023/05/24 22:29:21;;;;;;;;;;;;;;;;;;5037139;28;20326;-88
2023/05/24 22:31:47;;;;;;;;;;;;;;;;;;5039378;28;19912;-87
2023/05/24 22:34:12;;;;;;;;;;;;;;;;;;5038762;28;19913;-87
